Time;durP1;ratioP1;P1;durP2;ratioP2;P2;SDS_P1;SDS_P2;PMS_P1;PMS_P2;Temp;Humidity;BMP_temperature;BMP_pressure;BME280_temperature;BME280_humidity;BME280_pressure;Samples;Min_cycle;Max_cycle;Signal;HPM_P1;HPM_P2
2023/04/05 00:01:50;;;;;;;5.63;3.53;;;;;;;0.62;78.55;96753.38;5038230;28;20232;-69
2023/04/05 00:04:19;;;;;;;6.60;3.23;;;;;;;0.58;78.59;96750.28;5039126;28;20200;-69
2023/04/05 00:06:49;;;;;;;9.17;3.57;;;;;;;0.53;79.34;96747.16;5039663;28;20205;-68
2023/04/05 00:09:18;;;;;;;7.70;4.27;;;;;;;0.32;80.01;96746.84;5038196;28;20307;-69
2023/04/05 00:11:44;;;;;;;7.03;4.13;;;;;;;0.27;80.60;96746.31;5039324;28;20298;-69
2023/04/05 00:14:11;;;;;;;14.83;4.50;;;;;;;0.31;80.81;96747.78;5038971;28;20594;-69
2023/04/05 00:16:38;;;;;;;8.50;4.80;;;;;;;0.33;81.66;96745.91;5038644;28;20213;-69
2023/04/05 00:19:04;;;;;;;7.90;4.63;;;;;;;0.30;81.60;96748.69;5038399;28;20205;-69
2023/04/05 00:21:32;;;;;;;7.27;3.97;;;;;;;0.39;81.14;96737.72;5038708;28;20229;-69
2023/04/05 00:23:59;;;;;;;10.33;4.47;;;;;;;0.10;81.48;96731.09;5038318;28;20205;-68
2023/04/05 00:26:26;;;;;;;7.70;3.90;;;;;;;0.06;82.43;96727.03;5038833;28;20201;-69
2023/04/05 00:28:53;;;;;;;11.30;4.50;;;;;;;0.17;81.25;96724.53;5037518;28;20209;-69
2023/04/05 00:31:20;;;;;;;7.57;4.17;;;;;;;0.20;81.24;96721.75;5037949;28;20217;-69
2023/04/05 00:33:47;;;;;;;8.53;4.27;;;;;;;0.26;80.83;96713.56;5038159;28;20209;-69
2023/04/05 00:36:15;;;;;;;6.07;3.83;;;;;;;0.38;80.40;96711.91;5037982;28;20205;-69
2023/04/05 00:38:42;;;;;;;5.80;3.73;;;;;;;0.40;80.66;96705.69;5038112;28;20201;-69
2023/04/05 00:41:10;;;;;;;6.97;3.73;;;;;;;0.39;80.78;96711.78;5037782;28;20221;-69
2023/04/05 00:43:37;;;;;;;6.57;3.73;;;;;;;0.29;81.04;96709.94;5038272;28;20201;-69
2023/04/05 00:46:05;;;;;;;6.13;3.37;;;;;;;0.23;81.48;96713.78;5038467;28;20217;-68
2023/04/05 00:48:32;;;;;;;8.07;4.03;;;;;;;0.14;82.21;96709.22;5037743;28;20210;-69
2023/04/05 00:50:59;;;;;;;6.50;3.63;;;;;;;0.06;82.49;96711.50;5038057;28;20712;-69
2023/04/05 00:53:26;;;;;;;10.47;3.67;;;;;;;-0.08;82.84;96709.91;5038230;28;20203;-69
2023/04/05 00:55:54;;;;;;;10.17;4.67;;;;;;;-0.28;83.78;96715.56;5037990;28;20306;-69
2023/04/05 00:58:23;;;;;;;11.07;4.03;;;;;;;0.08;83.27;96714.78;5037808;28;20210;-69
2023/04/05 01:01:00;;;;;;;8.50;3.87;;;;;;;0.18;82.19;96709.84;5038638;28;20304;-68
2023/04/05 01:03:29;;;;;;;6.37;3.73;;;;;;;0.16;82.00;96701.34;5038171;28;20201;-69
2023/04/05 01:06:08;;;;;;;5.07;3.40;;;;;;;0.26;81.66;96700.59;5037937;28;20204;-69
2023/04/05 01:08:45;;;;;;;8.10;4.27;;;;;;;0.19;81.35;96699.38;5038086;28;20209;-69
2023/04/05 01:11:13;;;;;;;6.73;4.07;;;;;;;0.13;82.46;96702.38;5037418;28;20290;-69
2023/04/05 01:13:41;;;;;;;6.00;3.77;;;;;;;0.15;81.74;96697.06;5037329;28;20276;-68
2023/04/05 01:16:07;;;;;;;6.13;3.47;;;;;;;0.21;81.70;96689.72;5037921;28;20225;-69
2023/04/05 01:18:35;;;;;;;4.83;3.47;;;;;;;0.19;80.90;96696.78;5037180;28;20208;-69
2023/04/05 01:21:28;;;;;;;9.33;3.73;;;;;;;0.27;82.09;96699.69;5037033;28;20224;-69
2023/04/05 01:24:08;;;;;;;6.07;3.57;;;;;;;0.07;81.51;96697.59;5038351;28;20216;-69
2023/04/05 01:26:53;;;;;;;5.37;3.50;;;;;;;0.03;83.35;96693.53;5037242;28;21295;-70
2023/04/05 01:30:03;;;;;;;7.00;3.40;;;;;;;0.14;82.50;96679.88;5036412;28;20229;-69
2023/04/05 01:32:43;;;;;;;8.23;3.73;;;;;;;0.26;82.21;96673.88;4975790;28;20238;-69
2023/04/05 01:35:21;;;;;;;6.63;4.00;;;;;;;0.22;81.93;96681.00;4975199;28;20237;-69
2023/04/05 01:37:55;;;;;;;7.33;3.27;;;;;;;0.13;82.56;96671.28;5016660;28;20205;-70
2023/04/05 01:40:23;;;;;;;7.73;3.77;;;;;;;0.01;83.15;96676.44;5037193;28;20212;-68
2023/04/05 01:42:49;;;;;;;6.90;3.67;;;;;;;0.04;82.36;96671.91;5036459;28;21271;-69
2023/04/05 01:45:17;;;;;;;10.00;4.10;;;;;;;-0.02;82.52;96668.91;5037625;28;20205;-69
2023/04/05 01:47:44;;;;;;;10.53;3.23;;;;;;;-0.08;82.52;96671.06;5036628;28;20584;-69
2023/04/05 01:50:10;;;;;;;8.47;4.33;;;;;;;-0.07;83.71;96663.19;5036434;28;20205;-69
2023/04/05 01:52:37;;;;;;;6.43;4.00;;;;;;;-0.14;83.70;96666.28;5036252;28;21142;-68
2023/04/05 01:55:04;;;;;;;7.07;4.10;;;;;;;-0.11;84.13;96666.09;5037167;28;20235;-69
2023/04/05 01:57:30;;;;;;;6.03;3.70;;;;;;;-0.03;84.54;96658.66;5036430;28;20487;-68
2023/04/05 01:59:57;;;;;;;11.00;4.60;;;;;;;0.00;84.18;96659.28;5036533;28;20205;-69
2023/04/05 02:02:25;;;;;;;7.93;4.53;;;;;;;-0.01;83.42;96658.44;5036549;28;20632;-68
2023/04/05 02:04:51;;;;;;;8.63;3.90;;;;;;;-0.06;83.87;96658.84;5037111;28;20212;-69
2023/04/05 02:07:18;;;;;;;11.37;4.77;;;;;;;-0.14;83.95;96661.13;5036265;28;20228;-69
2023/04/05 02:09:44;;;;;;;9.33;4.67;;;;;;;-0.17;84.88;96659.56;5036469;28;20204;-69
2023/04/05 02:12:11;;;;;;;8.30;4.13;;;;;;;-0.15;84.00;96654.28;5036780;28;20229;-68
2023/04/05 02:14:37;;;;;;;9.20;4.27;;;;;;;-0.13;83.72;96657.59;5036399;28;20565;-68
2023/04/05 02:17:04;;;;;;;6.97;3.77;;;;;;;-0.13;83.50;96655.00;5036641;28;21162;-68
2023/04/05 02:19:39;;;;;;;8.40;3.83;;;;;;;-0.23;83.00;96651.38;5036486;28;20224;-68
2023/04/05 02:22:06;;;;;;;5.87;3.57;;;;;;;-0.26;83.79;96646.41;5036585;28;20333;-68
2023/04/05 02:24:33;;;;;;;7.23;4.43;;;;;;;-0.20;84.36;96649.41;5036368;28;20208;-68
2023/04/05 02:26:59;;;;;;;11.93;4.57;;;;;;;-0.18;82.85;96644.13;5036781;28;20208;-68
2023/04/05 02:29:26;;;;;;;9.23;4.73;;;;;;;-0.37;83.57;96633.34;5036673;28;20541;-68
2023/04/05 02:31:53;;;;;;;7.13;3.83;;;;;;;-0.31;82.55;96635.53;5035582;28;20671;-67
2023/04/05 02:34:21;;;;;;;8.03;3.70;;;;;;;-0.38;82.86;96634.25;5036054;28;20201;-69
2023/04/05 02:36:49;;;;;;;9.73;4.27;;;;;;;-0.34;83.43;96630.56;5036888;28;20197;-69
2023/04/05 02:39:16;;;;;;;5.80;3.70;;;;;;;-0.50;84.45;96627.31;5035741;28;20683;-69
2023/04/05 02:41:43;;;;;;;7.73;3.87;;;;;;;-0.64;84.28;96635.16;5035888;28;20225;-68
2023/04/05 02:44:09;;;;;;;7.57;3.53;;;;;;;-0.65;84.44;96632.69;5035949;28;20209;-68
2023/04/05 02:46:36;;;;;;;6.43;3.63;;;;;;;-0.62;84.68;96628.13;5036295;28;20229;-68
2023/04/05 02:49:02;;;;;;;8.43;4.13;;;;;;;-0.70;84.47;96633.00;5035803;28;20208;-68
2023/04/05 02:51:28;;;;;;;13.87;4.83;;;;;;;-0.77;85.25;96628.31;5035816;28;20235;-68
2023/04/05 02:53:56;;;;;;;6.73;4.43;;;;;;;-0.81;85.10;96626.84;5036964;28;20209;-68
2023/04/05 02:56:23;;;;;;;8.60;3.90;;;;;;;-1.01;86.14;96619.53;5040499;28;20964;-68
2023/04/05 02:58:50;;;;;;;6.80;3.43;;;;;;;-0.90;84.92;96623.09;5039164;28;20579;-68
2023/04/05 03:01:17;;;;;;;9.53;4.30;;;;;;;-0.88;85.37;96618.66;5040480;28;20629;-68
2023/04/05 03:03:44;;;;;;;10.57;4.30;;;;;;;-0.94;86.07;96613.88;5040294;28;20323;-68
2023/04/05 03:06:10;;;;;;;7.87;3.77;;;;;;;-0.86;84.78;96614.22;5039536;28;20212;-68
2023/04/05 03:08:37;;;;;;;7.90;3.83;;;;;;;-1.02;85.33;96612.69;5039801;28;20577;-68
2023/04/05 03:11:06;;;;;;;10.70;4.47;;;;;;;-1.14;87.31;96611.72;5040271;28;20224;-68
2023/04/05 03:13:33;;;;;;;6.27;4.03;;;;;;;-1.13;87.70;96622.91;5039529;28;20201;-69
2023/04/05 03:15:59;;;;;;;8.17;4.60;;;;;;;-1.23;88.29;96614.09;5039644;28;20238;-68
2023/04/05 03:18:26;;;;;;;8.50;4.03;;;;;;;-1.01;86.50;96617.78;5039212;28;20204;-68
2023/04/05 03:20:55;;;;;;;4.57;3.07;;;;;;;-0.91;85.54;96616.25;5040069;28;20268;-68
2023/04/05 03:23:25;;;;;;;9.97;3.70;;;;;;;-1.07;85.84;96613.00;5039783;28;20208;-68
2023/04/05 03:25:53;;;;;;;7.60;3.73;;;;;;;-1.03;85.65;96606.72;5040100;28;20203;-68
2023/04/05 03:28:22;;;;;;;6.23;3.77;;;;;;;-1.10;85.25;96607.19;5038643;28;20205;-68
2023/04/05 03:30:49;;;;;;;6.47;3.63;;;;;;;-1.14;85.32;96611.72;5038848;28;20707;-68
2023/04/05 03:33:15;;;;;;;7.73;3.90;;;;;;;-1.22;85.97;96615.75;5039659;28;20239;-68
2023/04/05 03:35:42;;;;;;;10.83;4.07;;;;;;;-1.13;86.67;96621.16;5038992;28;20228;-68
2023/04/05 03:38:08;;;;;;;6.90;4.30;;;;;;;-1.17;86.77;96614.53;5038693;28;20219;-68
2023/04/05 03:40:35;;;;;;;8.37;3.67;;;;;;;-1.10;87.46;96623.53;5039141;28;20228;-68
2023/04/05 03:43:02;;;;;;;5.30;3.67;;;;;;;-1.18;87.54;96623.19;5039785;28;20213;-68
2023/04/05 03:45:29;;;;;;;6.23;3.07;;;;;;;-1.09;87.16;96620.03;5039243;28;20198;-68
2023/04/05 03:47:56;;;;;;;8.27;4.20;;;;;;;-1.15;87.43;96612.66;5038838;28;20212;-68
2023/04/05 03:50:22;;;;;;;8.23;3.77;;;;;;;-1.13;86.74;96610.00;5039286;28;20235;-71
2023/04/05 03:52:49;;;;;;;8.27;4.27;;;;;;;-1.13;86.47;96613.41;5039217;28;20687;-68
2023/04/05 03:55:16;;;;;;;12.13;3.97;;;;;;;-1.04;86.16;96615.41;5039154;28;20217;-68
2023/04/05 03:57:43;;;;;;;9.10;4.17;;;;;;;-1.05;87.01;96616.31;5038567;28;20641;-69
2023/04/05 04:00:13;;;;;;;14.37;5.00;;;;;;;-1.05;86.65;96607.75;5039128;28;20218;-69
2023/04/05 04:02:42;;;;;;;8.90;3.97;;;;;;;-0.98;85.00;96609.00;5038636;28;20220;-68
2023/04/05 04:05:09;;;;;;;7.73;3.87;;;;;;;-1.08;83.31;96607.94;5038571;28;20206;-68
2023/04/05 04:07:36;;;;;;;9.33;4.50;;;;;;;-1.11;83.29;96610.72;5038327;28;20673;-68
2023/04/05 04:10:04;;;;;;;6.70;3.90;;;;;;;-1.16;85.02;96616.19;5038421;28;20205;-68
2023/04/05 04:12:30;;;;;;;7.40;3.67;;;;;;;-1.15;84.57;96617.00;5039260;28;20217;-69
2023/04/05 04:14:57;;;;;;;10.00;4.93;;;;;;;-1.19;84.31;96610.38;5038701;28;20827;-69
2023/04/05 04:17:27;;;;;;;12.13;4.60;;;;;;;-1.15;84.30;96612.66;5037735;28;20274;-69
2023/04/05 04:19:56;;;;;;;7.70;4.40;;;;;;;-1.21;84.54;96613.06;5038402;28;20225;-68
2023/04/05 04:22:25;;;;;;;7.73;4.17;;;;;;;-1.38;83.96;96609.88;5038691;28;20235;-69
2023/04/05 04:24:52;;;;;;;6.53;3.90;;;;;;;-1.47;84.85;96607.88;5038786;28;20299;-68
2023/04/05 04:27:19;;;;;;;8.50;4.57;;;;;;;-1.44;85.48;96607.69;5038227;28;20233;-68
2023/04/05 04:29:46;;;;;;;7.03;3.67;;;;;;;-1.45;84.78;96602.59;5038740;28;20239;-68
2023/04/05 04:32:14;;;;;;;8.77;4.40;;;;;;;-1.52;85.63;96609.91;5037675;28;20232;-68
2023/04/05 04:34:43;;;;;;;11.40;5.67;;;;;;;-1.45;86.76;96602.59;5038414;28;20201;-68
2023/04/05 04:37:17;;;;;;;6.37;4.47;;;;;;;-1.50;86.18;96610.66;5038133;28;20260;-68
2023/04/05 04:39:46;;;;;;;6.57;3.90;;;;;;;-1.43;86.35;96604.16;5037948;28;20209;-68
2023/04/05 04:42:12;;;;;;;8.33;3.63;;;;;;;-1.43;85.92;96603.34;5039020;28;20229;-69
2023/04/05 04:44:41;;;;;;;10.27;4.60;;;;;;;-1.52;87.24;96609.09;5038950;28;20210;-69
2023/04/05 04:47:12;;;;;;;6.70;4.67;;;;;;;-1.55;86.24;96601.53;5038251;28;21282;-68
2023/04/05 04:49:38;;;;;;;10.33;4.17;;;;;;;-1.49;86.27;96611.47;5037443;28;20322;-68
2023/04/05 04:52:05;;;;;;;7.33;3.80;;;;;;;-1.48;86.16;96613.13;5038606;28;20232;-68
2023/04/05 04:54:35;;;;;;;7.13;3.97;;;;;;;-1.53;85.90;96615.19;5039074;28;20208;-69
2023/04/05 04:57:02;;;;;;;14.37;4.03;;;;;;;-1.56;85.68;96615.38;5037533;28;20568;-70
2023/04/05 04:59:28;;;;;;;7.17;3.80;;;;;;;-1.60;85.65;96625.06;5036742;28;20254;-70
2023/04/05 05:01:55;;;;;;;12.03;4.43;;;;;;;-1.50;85.69;96612.41;5038327;28;20587;-70
2023/04/05 05:04:21;;;;;;;7.03;3.97;;;;;;;-1.51;86.20;96619.34;5037777;28;20201;-70
2023/04/05 05:06:50;;;;;;;10.17;4.93;;;;;;;-1.45;86.53;96618.97;5037957;28;20205;-70
2023/04/05 05:09:17;;;;;;;8.83;4.23;;;;;;;-1.41;86.54;96620.41;5037769;28;20269;-70
2023/04/05 05:11:45;;;;;;;10.47;4.80;;;;;;;-1.32;86.43;96624.16;5037609;28;20240;-70
2023/04/05 05:14:12;;;;;;;7.90;4.10;;;;;;;-1.30;86.44;96622.31;5037318;28;20413;-70
2023/04/05 05:16:38;;;;;;;7.27;3.97;;;;;;;-1.21;86.32;96628.56;5036357;28;20228;-70
2023/04/05 05:19:05;;;;;;;9.27;4.60;;;;;;;-1.07;85.56;96622.50;5036689;28;20208;-70
2023/04/05 05:21:31;;;;;;;8.87;4.60;;;;;;;-1.07;85.82;96620.78;5037433;28;20221;-70
2023/04/05 05:23:58;;;;;;;12.93;4.53;;;;;;;-1.01;86.08;96625.53;5037452;28;20205;-70
2023/04/05 05:26:25;;;;;;;12.87;5.37;;;;;;;-0.86;85.64;96623.75;5037873;28;20195;-70
2023/04/05 05:28:53;;;;;;;10.53;5.13;;;;;;;-0.70;84.99;96626.97;5036191;28;20204;-70
2023/04/05 05:31:19;;;;;;;7.13;3.63;;;;;;;-0.68;84.25;96622.53;5036947;28;20613;-70
2023/04/05 05:33:48;;;;;;;8.47;4.80;;;;;;;-0.68;84.35;96617.38;5036909;28;20208;-70
2023/04/05 05:36:15;;;;;;;12.13;5.13;;;;;;;-0.73;84.87;96620.22;5036585;28;20225;-70
2023/04/05 05:38:42;;;;;;;12.73;5.00;;;;;;;-0.67;84.76;96617.25;5036739;28;20721;-70
2023/04/05 05:41:09;;;;;;;6.73;4.13;;;;;;;-0.59;85.51;96604.63;5037598;28;20270;-70
2023/04/05 05:43:36;;;;;;;9.37;4.43;;;;;;;-0.78;87.51;96617.13;5036640;28;20197;-70
2023/04/05 05:46:03;;;;;;;9.53;4.77;;;;;;;-0.54;88.17;96623.28;5037545;28;20197;-70
2023/04/05 05:48:30;;;;;;;8.50;4.60;;;;;;;-0.74;89.62;96628.09;5036425;28;20586;-70
2023/04/05 05:51:00;;;;;;;11.00;4.13;;;;;;;-0.65;90.92;96623.13;5037030;28;20226;-70
2023/04/05 05:53:26;;;;;;;9.57;4.90;;;;;;;-0.45;91.08;96614.91;5037346;28;20653;-71
2023/04/05 05:55:53;;;;;;;7.20;4.30;;;;;;;-0.23;89.78;96615.13;5036511;28;20235;-71
2023/04/05 05:58:20;;;;;;;12.00;5.37;;;;;;;-0.14;90.38;96614.50;5036603;28;20197;-70
2023/04/05 06:00:46;;;;;;;10.03;5.30;;;;;;;-0.13;90.87;96605.81;5036874;28;20233;-70
2023/04/05 06:03:15;;;;;;;13.63;5.00;;;;;;;0.05;90.69;96611.41;5036658;28;20275;-70
2023/04/05 06:05:50;;;;;;;12.67;5.20;;;;;;;0.24;89.81;96610.94;5036560;28;20207;-70
2023/04/05 06:08:17;;;;;;;11.60;5.30;;;;;;;0.19;89.50;96603.50;5036178;28;21151;-71
2023/04/05 06:10:43;;;;;;;12.90;5.33;;;;;;;0.26;89.45;96609.09;5036343;28;20227;-70
2023/04/05 06:13:10;;;;;;;12.77;5.40;;;;;;;0.36;89.52;96616.13;5036497;28;20201;-70
2023/04/05 06:15:36;;;;;;;8.77;4.83;;;;;;;0.34;88.68;96601.59;5036224;28;20202;-70
2023/04/05 06:18:03;;;;;;;16.27;6.13;;;;;;;0.43;87.36;96600.97;5036055;28;21189;-70
2023/04/05 06:20:31;;;;;;;11.00;5.23;;;;;;;0.61;88.05;96605.66;5036426;28;20700;-70
2023/04/05 06:22:57;;;;;;;11.23;5.63;;;;;;;0.62;87.53;96607.31;5036535;28;20208;-70
2023/04/05 06:25:24;;;;;;;9.17;4.80;;;;;;;0.69;86.13;96611.97;5036176;28;20210;-70
2023/04/05 06:27:50;;;;;;;14.33;5.50;;;;;;;0.77;86.58;96614.03;5032535;28;20213;-71
2023/04/05 06:30:17;;;;;;;14.17;5.50;;;;;;;0.86;85.49;96621.16;5035448;28;20205;-70
2023/04/05 06:32:44;;;;;;;10.60;5.83;;;;;;;0.89;84.54;96626.13;5034952;28;20685;-70
2023/04/05 06:35:12;;;;;;;11.40;5.50;;;;;;;0.91;83.70;96622.47;5035631;28;20594;-70
2023/04/05 06:37:40;;;;;;;9.70;4.77;;;;;;;1.09;83.99;96615.97;5034569;28;20228;-70
2023/04/05 06:40:08;;;;;;;12.30;5.97;;;;;;;1.11;83.54;96621.88;5033970;28;20209;-70
2023/04/05 06:42:35;;;;;;;12.03;5.83;;;;;;;1.06;82.20;96633.50;5034960;28;20224;-70
2023/04/05 06:45:03;;;;;;;10.07;5.00;;;;;;;1.21;81.93;96628.88;5034113;28;20204;-70
2023/04/05 06:47:29;;;;;;;10.80;5.47;;;;;;;1.34;83.85;96637.44;5034488;28;20208;-70
2023/04/05 06:49:56;;;;;;;13.67;6.03;;;;;;;1.49;82.77;96631.13;5034890;28;20299;-70
2023/04/05 06:52:22;;;;;;;14.20;5.73;;;;;;;1.42;79.82;96624.72;5035878;28;20228;-70
2023/04/05 06:54:50;;;;;;;13.33;5.83;;;;;;;1.60;79.64;96631.13;5034288;28;20208;-70
2023/04/05 06:57:17;;;;;;;12.40;5.63;;;;;;;1.56;78.69;96634.91;5034124;28;20217;-70
2023/04/05 06:59:43;;;;;;;10.37;5.33;;;;;;;1.59;78.46;96634.69;5034984;28;20709;-70
2023/04/05 07:02:10;;;;;;;10.97;5.47;;;;;;;1.72;78.76;96635.44;5034410;28;20810;-70
2023/04/05 07:04:37;;;;;;;12.47;5.27;;;;;;;1.77;78.03;96633.34;5034534;28;20204;-70
2023/04/05 07:07:04;;;;;;;14.50;4.87;;;;;;;1.84;78.39;96634.50;5035620;28;20197;-70
2023/04/05 07:09:32;;;;;;;11.77;4.90;;;;;;;1.87;79.51;96627.31;5033719;28;20203;-70
2023/04/05 07:12:02;;;;;;;11.57;5.53;;;;;;;1.89;80.90;96635.81;5033494;28;20227;-70
2023/04/05 07:14:29;;;;;;;12.47;4.73;;;;;;;2.18;78.71;96631.03;5034234;28;20621;-70
2023/04/05 07:16:56;;;;;;;9.80;4.83;;;;;;;2.08;79.21;96627.47;5033856;28;20232;-70
2023/04/05 07:19:23;;;;;;;13.87;5.27;;;;;;;2.16;77.40;96625.13;5034254;28;20266;-70
2023/04/05 07:21:49;;;;;;;10.23;5.07;;;;;;;2.19;76.44;96622.28;5033885;28;20234;-70
2023/04/05 07:24:16;;;;;;;12.90;5.23;;;;;;;2.40;77.66;96621.44;5033807;28;20204;-70
2023/04/05 07:26:43;;;;;;;9.60;5.17;;;;;;;2.44;76.02;96621.13;5035244;28;20202;-71
2023/04/05 07:29:11;;;;;;;8.27;4.67;;;;;;;2.63;75.17;96621.31;5034975;28;20698;-71
2023/04/05 07:31:39;;;;;;;9.97;5.30;;;;;;;2.57;75.93;96620.97;5034818;28;21211;-70
2023/04/05 07:34:06;;;;;;;9.57;5.23;;;;;;;2.84;75.06;96632.66;5035303;28;20201;-71
2023/04/05 07:36:33;;;;;;;10.50;4.73;;;;;;;2.96;75.19;96631.66;5035218;28;20219;-70
2023/04/05 07:39:00;;;;;;;9.87;5.70;;;;;;;3.05;72.28;96628.34;5035543;28;20204;-70
2023/04/05 07:41:30;;;;;;;7.23;4.37;;;;;;;3.13;72.10;96633.75;5038430;28;20230;-70
2023/04/05 07:43:57;;;;;;;12.27;5.07;;;;;;;3.06;71.73;96633.41;5038919;28;20214;-70
2023/04/05 07:46:26;;;;;;;10.60;4.80;;;;;;;3.29;71.07;96632.41;5039649;28;21021;-71
2023/04/05 07:48:52;;;;;;;9.53;4.77;;;;;;;3.24;70.41;96634.53;5038557;28;20664;-71
2023/04/05 07:51:19;;;;;;;10.47;4.80;;;;;;;3.29;69.12;96632.41;5039074;28;20221;-70
2023/04/05 07:53:45;;;;;;;13.17;5.37;;;;;;;3.52;69.75;96633.16;5039342;28;20212;-70
2023/04/05 07:56:13;;;;;;;12.07;4.50;;;;;;;3.58;68.10;96636.09;5039165;28;20208;-70
2023/04/05 07:58:40;;;;;;;11.47;5.23;;;;;;;3.76;67.70;96626.75;5038737;28;20197;-70
2023/04/05 08:01:07;;;;;;;11.90;4.90;;;;;;;3.72;69.03;96634.00;5037936;28;20232;-70
2023/04/05 08:03:38;;;;;;;9.70;4.83;;;;;;;3.89;67.86;96630.81;5038877;28;20310;-70
2023/04/05 08:06:11;;;;;;;11.60;5.03;;;;;;;4.09;65.86;96630.00;5039104;28;20294;-70
2023/04/05 08:08:38;;;;;;;7.97;4.50;;;;;;;4.02;67.35;96617.59;5038030;28;20201;-71
2023/04/05 08:11:05;;;;;;;9.93;5.20;;;;;;;3.99;67.23;96623.88;5039265;28;20225;-70
2023/04/05 08:13:32;;;;;;;12.03;5.30;;;;;;;4.12;69.08;96619.28;5039073;28;20794;-70
2023/04/05 08:15:59;;;;;;;9.73;4.63;;;;;;;3.98;68.55;96624.84;5037709;28;20304;-70
2023/04/05 08:18:26;;;;;;;8.53;4.97;;;;;;;4.28;66.27;96622.28;5038451;28;20200;-71
2023/04/05 08:20:54;;;;;;;13.87;5.23;;;;;;;4.45;67.36;96626.88;5039842;28;20233;-70
2023/04/05 08:23:21;;;;;;;11.00;4.40;;;;;;;4.54;63.80;96620.88;5038081;28;20665;-71
2023/04/05 08:25:48;;;;;;;8.07;4.93;;;;;;;4.58;63.84;96619.66;5038207;28;20209;-71
2023/04/05 08:28:14;;;;;;;8.13;5.07;;;;;;;4.82;64.50;96624.44;5037960;28;20201;-70
2023/04/05 08:30:41;;;;;;;10.87;5.00;;;;;;;4.84;63.30;96617.28;5038642;28;20661;-70
2023/04/05 08:33:08;;;;;;;12.37;5.03;;;;;;;4.84;65.34;96617.28;5037166;28;20231;-71
2023/04/05 08:35:36;;;;;;;10.00;4.80;;;;;;;5.00;63.86;96617.59;5038498;28;20201;-70
2023/04/05 08:38:04;;;;;;;10.27;4.93;;;;;;;5.30;61.97;96609.66;5036990;28;20228;-71
2023/04/05 08:40:39;;;;;;;9.43;4.43;;;;;;;5.17;61.49;96611.72;5037949;28;20197;-71
2023/04/05 08:43:10;;;;;;;8.87;4.03;;;;;;;5.21;61.97;96612.28;5037720;28;20205;-71
2023/04/05 08:45:44;;;;;;;8.23;5.00;;;;;;;5.30;64.73;96612.28;5037954;28;20747;-71
2023/04/05 08:48:11;;;;;;;7.83;4.33;;;;;;;5.04;62.31;96616.38;5037151;28;20205;-71
2023/04/05 08:50:37;;;;;;;8.37;4.27;;;;;;;5.04;60.00;96619.00;5037349;28;21255;-71
2023/04/05 08:53:09;;;;;;;9.97;4.23;;;;;;;5.39;60.71;96616.69;5038145;28;20206;-70
2023/04/05 08:55:36;;;;;;;8.87;4.23;;;;;;;5.25;61.44;96627.53;5037151;28;20209;-70
2023/04/05 08:58:07;;;;;;;7.83;4.47;;;;;;;5.34;58.00;96620.69;5037545;28;20236;-71
2023/04/05 09:00:34;;;;;;;8.17;4.47;;;;;;;5.47;60.04;96616.81;5037824;28;20205;-70
2023/04/05 09:03:01;;;;;;;7.27;4.07;;;;;;;5.66;58.15;96617.66;5038340;28;20388;-69
2023/04/05 09:05:30;;;;;;;7.20;4.03;;;;;;;5.62;55.27;96616.28;5036330;28;20208;-70
2023/04/05 09:07:58;;;;;;;9.87;4.50;;;;;;;5.70;55.69;96620.81;5036538;28;20613;-70
2023/04/05 09:10:27;;;;;;;5.73;4.00;;;;;;;5.48;55.38;96613.25;5037389;28;20252;-70
2023/04/05 09:12:54;;;;;;;8.40;3.53;;;;;;;5.69;54.94;96619.16;5040479;28;20579;-70
2023/04/05 09:15:23;;;;;;;6.93;3.50;;;;;;;6.23;52.53;96615.81;5036907;28;20478;-70
2023/04/05 09:17:50;;;;;;;7.53;3.37;;;;;;;6.54;49.15;96617.22;5037226;28;20260;-69
2023/04/05 09:20:17;;;;;;;7.87;3.50;;;;;;;6.78;52.98;96621.00;5037145;28;20845;-69
2023/04/05 09:22:44;;;;;;;7.23;4.40;;;;;;;6.89;49.57;96622.63;5037408;28;20201;-70
2023/04/05 09:25:11;;;;;;;9.80;4.33;;;;;;;6.71;49.55;96613.88;5037383;28;20740;-69
2023/04/05 09:27:54;;;;;;;8.87;4.03;;;;;;;6.47;52.62;96616.16;5036950;28;20213;-69
2023/04/05 09:30:22;;;;;;;8.70;4.13;;;;;;;6.27;51.38;96616.38;5037138;28;20928;-70
2023/04/05 09:32:51;;;;;;;7.53;4.10;;;;;;;6.07;52.70;96620.81;5037798;28;20209;-70
2023/04/05 09:35:19;;;;;;;7.43;3.90;;;;;;;6.07;53.89;96620.81;5036539;28;20220;-69
2023/04/05 09:37:53;;;;;;;9.47;4.33;;;;;;;6.03;52.88;96617.78;5036969;28;20228;-69
2023/04/05 09:40:20;;;;;;;6.50;3.80;;;;;;;6.05;51.08;96616.69;5035340;28;20730;-70
2023/04/05 09:42:49;;;;;;;7.93;4.57;;;;;;;6.13;51.64;96624.66;5036262;28;20205;-70
2023/04/05 09:45:17;;;;;;;7.60;3.80;;;;;;;5.99;52.84;96619.03;5036797;28;20220;-70
2023/04/05 09:47:54;;;;;;;11.17;4.53;;;;;;;5.74;53.30;96616.97;5035908;28;20284;-69
2023/04/05 09:50:20;;;;;;;9.27;3.67;;;;;;;5.10;53.17;96620.22;5036058;28;20802;-69
2023/04/05 09:52:48;;;;;;;8.37;4.30;;;;;;;5.28;54.57;96619.41;5036582;28;20696;-69
2023/04/05 09:55:25;;;;;;;8.13;4.40;;;;;;;5.66;54.65;96622.88;5036944;28;20735;-70
2023/04/05 09:57:53;;;;;;;7.13;3.87;;;;;;;5.89;52.94;96616.41;5036005;28;20224;-70
2023/04/05 10:00:22;;;;;;;9.13;4.37;;;;;;;5.85;51.12;96614.25;5036791;28;20227;-70
2023/04/05 10:02:53;;;;;;;8.00;4.30;;;;;;;5.85;52.15;96620.28;5035805;28;20201;-69
2023/04/05 10:05:23;;;;;;;8.30;4.10;;;;;;;6.18;52.55;96614.59;5036182;28;20198;-69
2023/04/05 10:07:50;;;;;;;6.80;3.80;;;;;;;6.40;51.97;96614.25;5035418;28;20669;-69
2023/04/05 10:10:16;;;;;;;9.87;3.90;;;;;;;6.63;50.66;96618.97;5035981;28;20209;-69
2023/04/05 10:12:44;;;;;;;7.30;4.23;;;;;;;6.79;48.38;96616.59;5037082;28;20212;-69
2023/04/05 10:15:13;;;;;;;7.13;4.10;;;;;;;6.69;48.47;96611.41;5035921;28;20262;-69
2023/04/05 10:17:48;;;;;;;7.63;4.30;;;;;;;6.47;49.24;96617.97;5036399;28;20224;-69
2023/04/05 10:20:16;;;;;;;10.03;3.87;;;;;;;6.60;49.89;96614.03;5036784;28;20976;-69
2023/04/05 10:22:54;;;;;;;6.83;4.03;;;;;;;6.83;50.15;96610.91;5036267;28;20227;-69
2023/04/05 10:25:27;;;;;;;8.47;3.90;;;;;;;7.19;52.48;96611.81;5036806;28;20232;-69
2023/04/05 10:27:55;;;;;;;8.30;4.03;;;;;;;7.38;48.90;96602.88;5036384;28;20201;-69
2023/04/05 10:30:26;;;;;;;5.13;3.70;;;;;;;7.22;48.18;96609.72;5035833;28;20205;-69
2023/04/05 10:33:08;;;;;;;7.37;3.73;;;;;;;7.35;46.31;96595.28;5037022;28;20220;-69
2023/04/05 10:35:46;;;;;;;7.13;4.30;;;;;;;7.09;48.15;96600.56;5036296;28;20200;-69
2023/04/05 10:38:19;;;;;;;8.93;3.97;;;;;;;6.98;46.98;96592.91;5035879;28;20707;-69
2023/04/05 10:40:47;;;;;;;7.27;4.13;;;;;;;6.63;51.31;96603.28;5036876;28;20217;-69
2023/04/05 10:43:19;;;;;;;6.30;3.83;;;;;;;6.75;49.68;96596.91;5036982;28;20217;-69
2023/04/05 10:45:49;;;;;;;8.20;4.13;;;;;;;6.84;47.85;96590.78;5035909;28;20201;-69
2023/04/05 10:48:21;;;;;;;11.60;4.63;;;;;;;6.95;51.41;96587.94;5033752;28;20224;-69
2023/04/05 10:50:48;;;;;;;6.87;3.87;;;;;;;7.54;47.96;96589.09;5036236;28;20900;-69
2023/04/05 10:53:16;;;;;;;9.17;4.00;;;;;;;7.68;47.31;96573.63;5035208;28;20563;-69
2023/04/05 10:55:44;;;;;;;9.23;4.03;;;;;;;7.53;47.39;96585.63;5035478;28;20208;-69
2023/04/05 10:58:13;;;;;;;8.53;4.10;;;;;;;7.07;47.01;96592.84;5035281;28;20228;-69
2023/04/05 11:00:40;;;;;;;10.50;4.27;;;;;;;6.99;45.35;96590.16;5035004;28;20220;-69
2023/04/05 11:03:08;;;;;;;9.50;3.63;;;;;;;7.12;46.11;96595.03;5034750;28;20205;-69
2023/04/05 11:05:37;;;;;;;6.63;4.07;;;;;;;6.93;45.87;96588.09;5035985;28;20205;-69
2023/04/05 11:08:06;;;;;;;7.63;4.17;;;;;;;7.60;45.83;96577.97;5034857;28;20205;-69
2023/04/05 11:10:36;;;;;;;8.00;3.90;;;;;;;8.20;48.22;96572.75;5034971;28;20194;-69
2023/04/05 11:13:04;;;;;;;6.93;3.47;;;;;;;7.84;44.40;96568.53;5035329;28;20206;-69
2023/04/05 11:15:33;;;;;;;6.53;3.60;;;;;;;8.01;44.68;96572.91;5036957;28;20236;-69
2023/04/05 11:18:09;;;;;;;8.07;4.13;;;;;;;8.66;48.21;96566.09;5038443;28;20229;-69
2023/04/05 11:20:51;;;;;;;7.23;4.00;;;;;;;8.64;43.38;96575.13;5039504;28;20696;-69
2023/04/05 11:23:19;;;;;;;9.83;4.57;;;;;;;8.31;43.03;96575.09;5039516;28;20231;-69
2023/04/05 11:25:52;;;;;;;7.40;4.17;;;;;;;8.10;44.16;96564.94;5039275;28;20537;-69
2023/04/05 11:28:40;;;;;;;6.27;3.80;;;;;;;8.28;42.67;96562.31;5038994;28;20209;-69
2023/04/05 11:31:15;;;;;;;6.13;3.77;;;;;;;8.37;46.04;96566.63;5033927;28;20317;-69
2023/04/05 11:33:58;;;;;;;7.83;3.90;;;;;;;8.99;45.46;96560.00;5038143;28;20304;-69
2023/04/05 11:36:32;;;;;;;6.67;4.03;;;;;;;9.02;45.74;96550.97;5036194;28;20918;-69
2023/04/05 11:39:24;;;;;;;9.00;4.20;;;;;;;8.62;42.46;96556.91;5038798;28;20225;-69
2023/04/05 11:41:56;;;;;;;11.30;4.17;;;;;;;8.29;44.88;96558.69;5037333;28;20841;-69
2023/04/05 11:44:23;;;;;;;6.03;3.60;;;;;;;8.72;43.08;96557.59;5037681;28;20355;-69